Terminal Aerodrome Forecast
Issued by NWS

Home | Current Version | Previous Version | Text Only | Print | Product List | Glossary Off
Versions: 1 2 3 4 5 6 7 8 9 10 11 12

000
FTUS43 KBIS 201700
TAFMOT
TAF
KMOT 201737Z 2018/2118 20006KT P6SM SCT015
      TEMPO 2018/2020 BKN015
     FM202100 17008KT P6SM BKN250=

USA.gov is the U.S. government's official web portal to all federal, state and local government web resources and services.